Time;durP1;ratioP1;P1;durP2;ratioP2;P2;SDS_P1;SDS_P2;PMS_P1;PMS_P2;Temp;Humidity;BMP_temperature;BMP_pressure;BME280_temperature;BME280_humidity;BME280_pressure;Samples;Min_cycle;Max_cycle;Signal;HPM_P1;HPM_P2
2023/12/29 00:01:47;;;;;;;65.78;44.20;;;;;;;8.38;100.00;100504.53;4906238;29;20043;-76
2023/12/29 00:04:13;;;;;;;59.88;43.55;;;;;;;8.34;100.00;100517.06;4909230;29;20047;-76
2023/12/29 00:06:40;;;;;;;64.15;43.15;;;;;;;8.37;100.00;100524.75;4905635;29;20447;-76
2023/12/29 00:09:05;;;;;;;63.67;43.35;;;;;;;8.36;100.00;100514.34;4907656;29;20441;-74
2023/12/29 00:11:31;;;;;;;62.95;43.33;;;;;;;8.33;100.00;100498.75;4908183;29;20064;-75
2023/12/29 00:13:57;;;;;;;63.75;44.13;;;;;;;8.27;100.00;100500.00;4904130;29;20481;-75
2023/12/29 00:16:22;;;;;;;65.68;44.80;;;;;;;8.22;100.00;100494.22;4905697;29;20125;-75
2023/12/29 00:18:48;;;;;;;61.03;44.28;;;;;;;8.13;100.00;100498.28;4906838;29;20029;-74
2023/12/29 00:21:14;;;;;;;62.10;44.72;;;;;;;7.97;100.00;100491.56;4906721;29;20036;-76
2023/12/29 00:23:39;;;;;;;64.57;45.08;;;;;;;7.95;100.00;100489.03;4908198;29;20529;-75
2023/12/29 00:26:05;;;;;;;66.10;45.05;;;;;;;7.96;100.00;100485.47;4908779;29;20372;-77
2023/12/29 00:28:30;;;;;;;65.65;45.40;;;;;;;8.02;100.00;100489.47;4904727;29;20028;-74
2023/12/29 00:30:56;;;;;;;65.88;46.33;;;;;;;8.05;100.00;100497.16;4905926;29;20087;-75
2023/12/29 00:33:21;;;;;;;65.78;45.00;;;;;;;8.06;100.00;100485.69;4902186;29;20032;-75
2023/12/29 00:35:46;;;;;;;62.05;43.55;;;;;;;8.05;100.00;100484.84;4907435;29;20073;-75
2023/12/29 00:38:12;;;;;;;61.92;44.67;;;;;;;8.05;100.00;100484.84;4905124;29;20091;-76
2023/12/29 00:40:37;;;;;;;65.45;43.90;;;;;;;8.06;100.00;100481.28;4909835;29;20024;-75
2023/12/29 00:43:03;;;;;;;68.43;45.15;;;;;;;8.04;100.00;100477.06;4904113;29;20212;-75
2023/12/29 00:45:35;;;;;;;71.43;47.10;;;;;;;7.98;100.00;100480.09;4905279;29;20024;-75
2023/12/29 00:48:01;;;;;;;66.38;44.85;;;;;;;7.98;100.00;100482.75;4901698;29;20139;-76
2023/12/29 00:50:27;;;;;;;70.30;44.17;;;;;;;7.98;100.00;100482.75;4899971;29;20104;-75
2023/12/29 00:52:53;;;;;;;62.80;43.60;;;;;;;7.87;100.00;100470.31;4906516;29;20127;-75
2023/12/29 00:55:19;;;;;;;64.63;46.75;;;;;;;7.95;100.00;100475.06;4904050;29;20048;-75
2023/12/29 00:57:44;;;;;;;63.72;44.88;;;;;;;7.94;100.00;100476.00;4905124;29;20043;-75
2023/12/29 01:00:12;;;;;;;64.68;43.95;;;;;;;7.85;100.00;100469.56;4908340;29;20464;-75
2023/12/29 01:02:41;;;;;;;63.53;43.40;;;;;;;7.97;100.00;100468.75;4902216;29;20572;-75
2023/12/29 01:05:06;;;;;;;64.28;43.30;;;;;;;8.02;100.00;100463.19;4905806;29;20035;-74
2023/12/29 01:07:32;;;;;;;67.50;44.65;;;;;;;7.99;100.00;100466.88;4902396;29;20040;-75
2023/12/29 01:09:57;;;;;;;66.30;43.63;;;;;;;7.97;100.00;100473.16;4904255;29;20075;-75
2023/12/29 01:12:23;;;;;;;60.60;44.47;;;;;;;7.94;100.00;100473.38;4905827;29;20239;-75
2023/12/29 01:14:48;;;;;;;63.70;45.03;;;;;;;7.95;100.00;100477.69;4908025;29;20449;-75
2023/12/29 01:17:14;;;;;;;59.55;43.33;;;;;;;7.86;100.00;100473.91;4917514;29;20050;-75
2023/12/29 01:19:39;;;;;;;63.40;43.17;;;;;;;7.94;100.00;100481.28;4924348;29;20024;-76
2023/12/29 01:22:05;;;;;;;64.00;43.58;;;;;;;8.00;100.00;100480.84;4920824;29;20101;-74
2023/12/29 01:24:30;;;;;;;62.88;44.45;;;;;;;8.02;100.00;100485.03;4907731;29;20036;-75
2023/12/29 01:26:56;;;;;;;65.32;44.33;;;;;;;8.06;100.00;100480.44;4923289;29;20029;-74
2023/12/29 01:29:22;;;;;;;64.93;43.00;;;;;;;8.04;100.00;100475.28;4919719;29;20371;-75
2023/12/29 01:31:47;;;;;;;63.72;45.17;;;;;;;8.03;100.00;100484.09;4923829;29;20036;-74
2023/12/29 01:34:13;;;;;;;61.22;43.90;;;;;;;8.02;100.00;100478.94;4915884;29;20112;-77
2023/12/29 01:36:38;;;;;;;72.25;46.40;;;;;;;8.04;100.00;100482.31;4904403;29;20064;-74
2023/12/29 01:39:04;;;;;;;69.07;46.83;;;;;;;8.02;100.00;100484.19;4900037;29;20040;-74
2023/12/29 01:41:29;;;;;;;66.47;45.55;;;;;;;7.99;100.00;100479.16;4917273;29;20034;-75
2023/12/29 01:44:01;;;;;;;62.72;44.63;;;;;;;8.01;100.00;100477.28;4902200;29;20039;-75
2023/12/29 01:46:30;;;;;;;67.28;45.15;;;;;;;8.00;100.00;100475.59;4900342;29;20383;-75
2023/12/29 01:48:58;;;;;;;63.72;44.80;;;;;;;7.99;100.00;100474.75;4901319;29;20051;-75
2023/12/29 01:51:25;;;;;;;65.78;45.72;;;;;;;7.99;100.00;100474.75;4903027;29;20040;-75
2023/12/29 01:53:57;;;;;;;63.38;44.28;;;;;;;8.02;100.00;100476.31;4905023;29;20036;-75
2023/12/29 01:56:23;;;;;;;61.20;43.75;;;;;;;8.05;100.00;100473.50;4903635;29;20478;-75
2023/12/29 01:58:49;;;;;;;61.90;44.35;;;;;;;8.06;100.00;100475.19;4902207;29;20127;-74
2023/12/29 02:01:17;;;;;;;62.00;42.88;;;;;;;8.05;100.00;100479.59;4905500;29;20047;-76
2023/12/29 02:03:43;;;;;;;63.33;42.15;;;;;;;8.05;100.00;100473.50;4901807;29;20123;-76
2023/12/29 02:06:10;;;;;;;61.85;42.42;;;;;;;8.06;100.00;100485.69;4905239;29;20461;-76
2023/12/29 02:08:40;;;;;;;68.43;43.35;;;;;;;8.06;100.00;100490.97;4902065;29;20035;-76
2023/12/29 02:11:06;;;;;;;63.42;42.92;;;;;;;8.07;100.00;100482.13;4902009;29;20028;-75
2023/12/29 02:13:32;;;;;;;58.13;41.20;;;;;;;8.07;100.00;100492.66;4904908;29;20400;-76
2023/12/29 02:16:05;;;;;;;61.17;43.25;;;;;;;8.06;100.00;100483.91;4901893;29;20404;-75
2023/12/29 02:18:34;;;;;;;64.03;44.28;;;;;;;8.06;100.00;100480.44;4905462;29;20077;-76
2023/12/29 02:20:59;;;;;;;63.53;43.75;;;;;;;8.08;100.00;100473.28;4898514;29;20040;-75
2023/12/29 02:23:25;;;;;;;59.97;43.10;;;;;;;8.08;100.00;100471.50;4902279;29;20033;-75
2023/12/29 02:25:55;;;;;;;61.50;44.03;;;;;;;8.05;100.00;100468.25;4903345;29;20123;-75
2023/12/29 02:28:24;;;;;;;62.83;43.45;;;;;;;8.03;100.00;100467.50;4903476;29;20885;-75
2023/12/29 02:31:06;;;;;;;62.55;43.88;;;;;;;7.96;100.00;100464.44;4903510;29;20035;-75
2023/12/29 02:33:34;;;;;;;61.08;43.38;;;;;;;8.02;100.00;100468.44;4902201;29;20382;-75
2023/12/29 02:36:02;;;;;;;62.88;42.83;;;;;;;8.07;100.00;100469.00;4901593;29;20051;-76
2023/12/29 02:38:29;;;;;;;55.90;41.80;;;;;;;8.08;100.00;100470.66;4903478;29;20038;-75
2023/12/29 02:40:58;;;;;;;67.80;44.83;;;;;;;8.08;100.00;100457.50;4904457;29;20799;-75
2023/12/29 02:43:23;;;;;;;60.60;42.30;;;;;;;8.09;100.00;100446.88;4900250;29;20354;-76
2023/12/29 02:45:48;;;;;;;67.18;46.00;;;;;;;8.14;100.00;100443.94;4901862;29;20032;-75
2023/12/29 02:48:14;;;;;;;65.80;43.70;;;;;;;8.04;100.00;100445.53;4905647;29;20040;-76
2023/12/29 02:50:39;;;;;;;64.60;43.88;;;;;;;8.03;100.00;100449.94;4902264;29;20048;-76
2023/12/29 02:53:06;;;;;;;67.65;44.65;;;;;;;7.94;100.00;100450.56;4905149;29;20080;-76
2023/12/29 02:55:31;;;;;;;62.65;45.20;;;;;;;7.85;100.00;100450.34;4903146;29;20095;-74
2023/12/29 02:57:57;;;;;;;63.65;43.67;;;;;;;7.90;100.00;100442.97;4902615;29;20036;-75
2023/12/29 03:00:22;;;;;;;64.28;44.50;;;;;;;8.00;100.00;100433.53;4904205;29;20450;-75
2023/12/29 03:02:48;;;;;;;63.63;44.42;;;;;;;7.97;100.00;100439.84;4902701;29;20040;-75
2023/12/29 03:05:14;;;;;;;65.82;43.83;;;;;;;7.91;100.00;100434.16;4901747;29;20048;-76
2023/12/29 03:07:40;;;;;;;62.75;44.13;;;;;;;7.79;100.00;100431.41;4902629;29;20021;-75
2023/12/29 03:10:07;;;;;;;69.72;45.58;;;;;;;7.88;100.00;100418.63;4903142;29;20099;-75
2023/12/29 03:12:32;;;;;;;62.65;42.92;;;;;;;7.91;100.00;100418.38;4904839;29;20465;-76
2023/12/29 03:14:59;;;;;;;59.97;42.13;;;;;;;7.89;100.00;100410.63;4900798;29;20091;-76
2023/12/29 03:17:25;;;;;;;61.97;43.75;;;;;;;7.83;100.00;100401.34;4901715;29;20032;-74
2023/12/29 03:19:52;;;;;;;64.53;44.85;;;;;;;7.79;100.00;100405.16;4905550;29;20371;-74
2023/12/29 03:22:17;;;;;;;67.40;44.42;;;;;;;7.73;100.00;100395.06;4902265;29;20365;-75
2023/12/29 03:24:43;;;;;;;61.75;42.20;;;;;;;7.68;100.00;100394.53;4908420;29;20087;-76
2023/12/29 03:27:09;;;;;;;65.90;45.50;;;;;;;7.60;100.00;100399.44;4909064;29;20039;-75
2023/12/29 03:29:35;;;;;;;62.17;43.42;;;;;;;7.57;100.00;100385.69;4907505;29;20055;-75
2023/12/29 03:32:00;;;;;;;62.40;43.42;;;;;;;7.50;100.00;100387.88;4907914;29;20121;-75
2023/12/29 03:34:25;;;;;;;67.80;46.03;;;;;;;7.51;100.00;100386.94;4906914;29;20020;-74
2023/12/29 03:36:51;;;;;;;68.80;46.20;;;;;;;7.55;100.00;100384.94;4905248;29;20045;-74
2023/12/29 03:39:17;;;;;;;59.10;44.05;;;;;;;7.64;100.00;100382.56;4908524;29;20468;-76
2023/12/29 03:41:43;;;;;;;65.22;45.78;;;;;;;7.57;100.00;100377.81;4904678;29;20422;-76
2023/12/29 03:44:09;;;;;;;62.42;43.72;;;;;;;7.55;100.00;100375.28;4907199;29;20068;-76
2023/12/29 03:46:36;;;;;;;65.78;45.22;;;;;;;7.59;100.00;100371.53;4907447;29;20043;-76
2023/12/29 03:49:02;;;;;;;64.50;42.60;;;;;;;7.65;100.00;100363.22;4906214;29;20039;-76
2023/12/29 03:51:28;;;;;;;63.70;43.20;;;;;;;7.69;100.00;100362.06;4907168;29;20485;-76
2023/12/29 03:53:53;;;;;;;61.42;43.70;;;;;;;7.60;100.00;100367.94;4907355;29;20108;-75
2023/12/29 03:56:19;;;;;;;61.88;44.13;;;;;;;7.45;100.00;100355.00;4905439;29;20164;-76
2023/12/29 03:58:45;;;;;;;64.45;43.28;;;;;;;7.36;100.00;100359.09;4908521;29;20150;-76
2023/12/29 04:01:11;;;;;;;63.92;44.45;;;;;;;7.26;100.00;100358.00;4903683;29;20402;-75
2023/12/29 04:03:37;;;;;;;66.50;46.10;;;;;;;7.40;100.00;100357.94;4907577;29;20520;-74
2023/12/29 04:06:04;;;;;;;65.55;44.85;;;;;;;7.44;100.00;100351.53;4908045;29;20170;-75
2023/12/29 04:08:29;;;;;;;63.53;42.90;;;;;;;7.50;100.00;100350.28;4908078;29;20197;-76
2023/12/29 04:10:55;;;;;;;64.18;44.15;;;;;;;7.40;100.00;100344.81;4903391;29;20458;-76
2023/12/29 04:13:22;;;;;;;66.38;44.90;;;;;;;7.26;100.00;100348.34;4906758;29;20375;-74
2023/12/29 04:15:47;;;;;;;67.53;45.30;;;;;;;7.28;100.00;100340.38;4905199;29;20489;-75
2023/12/29 04:18:13;;;;;;;67.45;47.15;;;;;;;7.28;100.00;100343.00;4903737;29;20028;-76
2023/12/29 04:20:39;;;;;;;66.90;44.50;;;;;;;7.32;100.00;100347.09;4904939;29;20099;-75
2023/12/29 04:23:06;;;;;;;62.88;44.55;;;;;;;7.36;100.00;100353.84;4906358;29;20525;-76
2023/12/29 04:25:32;;;;;;;67.40;44.03;;;;;;;7.37;100.00;100355.50;4907126;29;20390;-74
2023/12/29 04:27:57;;;;;;;63.80;43.60;;;;;;;7.39;100.00;100348.38;4903071;29;20032;-75
2023/12/29 04:30:23;;;;;;;59.67;43.38;;;;;;;7.46;100.00;100349.66;4903489;29;20046;-75
2023/12/29 04:32:48;;;;;;;62.67;43.75;;;;;;;7.55;100.00;100354.28;4904174;29;20042;-75
2023/12/29 04:35:15;;;;;;;62.50;44.00;;;;;;;7.52;100.00;100349.25;4902601;29;20048;-75
2023/12/29 04:37:44;;;;;;;62.58;43.50;;;;;;;7.56;100.00;100344.59;4904706;29;20111;-75
2023/12/29 04:40:10;;;;;;;58.88;42.92;;;;;;;7.62;100.00;100345.03;4898911;29;20477;-74
2023/12/29 04:42:36;;;;;;;63.85;43.70;;;;;;;7.58;100.00;100330.44;4905668;29;20036;-75
2023/12/29 04:45:01;;;;;;;61.67;42.58;;;;;;;7.59;100.00;100328.66;4902409;29;20075;-76
2023/12/29 04:47:26;;;;;;;59.90;42.72;;;;;;;7.57;100.00;100326.13;4906539;29;20127;-75
2023/12/29 04:49:52;;;;;;;58.92;42.80;;;;;;;7.46;100.00;100328.66;4905003;29;20486;-74
2023/12/29 04:52:17;;;;;;;58.70;41.65;;;;;;;7.51;100.00;100323.91;4906247;29;20062;-76
2023/12/29 04:54:43;;;;;;;60.40;42.42;;;;;;;7.52;100.00;100322.97;4905244;29;20025;-75
2023/12/29 04:57:08;;;;;;;56.55;41.38;;;;;;;7.55;100.00;100328.00;4904820;29;20128;-75
2023/12/29 04:59:34;;;;;;;59.30;40.40;;;;;;;7.53;100.00;100335.16;4907083;29;20099;-76
2023/12/29 05:01:59;;;;;;;60.75;40.80;;;;;;;7.57;100.00;100339.25;4902848;29;20048;-76
2023/12/29 05:04:25;;;;;;;57.72;39.72;;;;;;;7.59;100.00;100333.91;4901745;29;20130;-75
2023/12/29 05:06:50;;;;;;;57.67;40.20;;;;;;;7.65;100.00;100334.34;4905892;29;20139;-76
2023/12/29 05:09:15;;;;;;;64.75;42.42;;;;;;;7.63;100.00;100333.59;4903950;29;20077;-76
2023/12/29 05:11:41;;;;;;;63.88;42.90;;;;;;;7.47;100.00;100332.97;4904993;29;20036;-75
2023/12/29 05:14:06;;;;;;;56.35;40.83;;;;;;;7.44;100.00;100333.16;4904203;29;20028;-76
2023/12/29 05:16:32;;;;;;;58.75;42.03;;;;;;;7.47;100.00;100340.84;4901499;29;20340;-75
2023/12/29 05:18:58;;;;;;;61.20;42.47;;;;;;;7.51;100.00;100341.47;4906391;29;20060;-75
2023/12/29 05:21:25;;;;;;;67.07;41.63;;;;;;;7.59;100.00;100333.91;4906365;29;20131;-75
2023/12/29 05:23:51;;;;;;;62.03;42.45;;;;;;;7.60;100.00;100336.41;4904750;29;20047;-75
2023/12/29 05:26:16;;;;;;;64.68;42.33;;;;;;;7.55;100.00;100340.28;4906720;29;20040;-76
2023/12/29 05:28:42;;;;;;;65.28;42.15;;;;;;;7.55;100.00;100337.66;4903875;29;20032;-76
2023/12/29 05:31:08;;;;;;;59.15;41.45;;;;;;;7.66;100.00;100340.41;4905306;29;20028;-76
2023/12/29 05:33:33;;;;;;;66.85;41.05;;;;;;;7.71;100.00;100339.16;4906202;29;20442;-75
2023/12/29 05:36:05;;;;;;;63.17;42.08;;;;;;;7.71;100.00;100339.16;4902241;29;20039;-76
2023/12/29 05:38:31;;;;;;;61.60;42.60;;;;;;;7.72;100.00;100340.81;4900626;29;20516;-75
2023/12/29 05:40:57;;;;;;;61.38;42.80;;;;;;;7.75;100.00;100345.88;4905754;29;20035;-75
2023/12/29 05:43:23;;;;;;;65.22;43.38;;;;;;;7.76;100.00;100342.31;4902493;29;20047;-76
2023/12/29 05:45:48;;;;;;;63.63;41.88;;;;;;;7.79;100.00;100341.25;4906653;29;20028;-75
2023/12/29 05:48:14;;;;;;;60.88;41.75;;;;;;;7.80;100.00;100342.94;4902022;29;20485;-75
2023/12/29 05:50:40;;;;;;;60.28;41.95;;;;;;;7.81;100.00;100342.00;4904504;29;20519;-75
2023/12/29 05:53:06;;;;;;;60.05;41.45;;;;;;;7.80;100.00;100343.78;4905916;29;20032;-75
2023/12/29 05:55:31;;;;;;;59.05;39.95;;;;;;;7.83;100.00;100345.38;4902204;29;20434;-75
2023/12/29 05:57:56;;;;;;;58.17;41.58;;;;;;;7.85;100.00;100334.72;4904457;29;20029;-75
2023/12/29 06:00:22;;;;;;;63.92;41.38;;;;;;;7.79;100.00;100336.84;4904231;29;20549;-76
2023/12/29 06:02:47;;;;;;;56.97;40.53;;;;;;;7.69;100.00;100330.53;4901531;29;20040;-76
2023/12/29 06:05:14;;;;;;;60.50;41.20;;;;;;;7.64;100.00;100332.66;4904993;29;20040;-76
2023/12/29 06:07:40;;;;;;;57.90;41.45;;;;;;;7.61;100.00;100330.22;4902945;29;20039;-76
2023/12/29 06:10:06;;;;;;;57.15;40.10;;;;;;;7.55;100.00;100328.00;4904074;29;20110;-76
2023/12/29 06:12:31;;;;;;;57.10;40.88;;;;;;;7.51;100.00;100331.81;4888349;29;20056;-76
2023/12/29 06:14:57;;;;;;;59.58;41.17;;;;;;;7.50;100.00;100331.91;4901907;29;20028;-76
2023/12/29 06:17:22;;;;;;;59.63;42.65;;;;;;;7.54;100.00;100328.94;4901347;29;20485;-76
2023/12/29 06:19:48;;;;;;;54.72;39.90;;;;;;;7.56;100.00;100334.94;4902937;29;20036;-77
2023/12/29 06:22:14;;;;;;;63.25;41.80;;;;;;;7.55;100.00;100333.25;4904650;29;20096;-75
2023/12/29 06:24:40;;;;;;;55.75;41.03;;;;;;;7.63;100.00;100336.22;4903193;29;20028;-75
2023/12/29 06:27:09;;;;;;;59.50;41.65;;;;;;;7.65;100.00;100336.97;4905888;29;20060;-75
2023/12/29 06:29:34;;;;;;;56.60;40.67;;;;;;;7.68;100.00;100349.03;4906196;29;20167;-76
2023/12/29 06:32:00;;;;;;;63.28;42.17;;;;;;;7.67;100.00;100342.09;4901061;29;20126;-76
2023/12/29 06:34:26;;;;;;;57.25;39.50;;;;;;;7.59;100.00;100344.41;4884753;29;20036;-77
2023/12/29 06:36:51;;;;;;;59.65;41.08;;;;;;;7.54;100.00;100342.09;4902827;29;20485;-76
2023/12/29 06:39:17;;;;;;;59.20;41.13;;;;;;;7.53;100.00;100345.69;4900558;29;20040;-76
2023/12/29 06:41:42;;;;;;;59.03;39.35;;;;;;;7.48;100.00;100342.50;4906987;29;20032;-76
2023/12/29 06:44:09;;;;;;;58.50;41.65;;;;;;;7.45;100.00;100347.97;4900164;29;20046;-77
2023/12/29 06:46:37;;;;;;;57.40;40.97;;;;;;;7.42;100.00;100352.59;4901334;29;20437;-76
2023/12/29 06:49:02;;;;;;;58.78;41.80;;;;;;;7.43;100.00;100354.25;4898046;29;20033;-76
2023/12/29 06:51:28;;;;;;;59.05;41.40;;;;;;;7.46;100.00;100354.91;4905390;29;20012;-76
2023/12/29 06:53:54;;;;;;;64.68;41.45;;;;;;;7.43;100.00;100362.13;4901840;29;20049;-75
2023/12/29 06:56:19;;;;;;;60.85;42.30;;;;;;;7.45;100.00;100357.63;4905313;29;20091;-77
2023/12/29 06:58:45;;;;;;;59.63;41.55;;;;;;;7.47;100.00;100359.22;4903937;29;20060;-75
2023/12/29 07:01:11;;;;;;;58.55;42.08;;;;;;;7.51;100.00;100357.22;4905431;29;20424;-74
2023/12/29 07:03:38;;;;;;;65.38;41.05;;;;;;;7.53;100.00;100356.19;4908424;29;20076;-76
2023/12/29 07:06:04;;;;;;;61.40;42.00;;;;;;;7.48;100.00;100347.75;4901261;29;20032;-74
2023/12/29 07:08:29;;;;;;;60.20;41.00;;;;;;;7.36;100.00;100340.72;4903464;29;20107;-74
2023/12/29 07:10:55;;;;;;;57.92;42.22;;;;;;;7.29;100.00;100344.69;4907566;29;20139;-74
2023/12/29 07:13:21;;;;;;;60.05;42.28;;;;;;;7.26;100.00;100342.25;4905912;29;20047;-74
2023/12/29 07:15:47;;;;;;;61.78;42.90;;;;;;;7.24;100.00;100344.16;4906514;29;20039;-74
2023/12/29 07:18:14;;;;;;;60.08;41.53;;;;;;;7.23;100.00;100350.34;4902204;29;20055;-74
2023/12/29 07:20:39;;;;;;;65.03;44.10;;;;;;;7.25;100.00;100337.94;4905729;29;20505;-74
2023/12/29 07:23:05;;;;;;;60.95;42.20;;;;;;;7.33;100.00;100335.66;4905210;29;20044;-73
2023/12/29 07:25:30;;;;;;;58.22;41.92;;;;;;;7.39;100.00;100335.25;4905616;29;20032;-74
2023/12/29 07:27:56;;;;;;;59.35;41.40;;;;;;;7.38;100.00;100337.03;4904453;29;20036;-73
2023/12/29 07:30:21;;;;;;;60.65;41.95;;;;;;;7.38;100.00;100336.19;4903115;29;20139;-73
2023/12/29 07:32:47;;;;;;;59.75;42.97;;;;;;;7.43;100.00;100328.00;4903619;29;20037;-72
2023/12/29 07:35:16;;;;;;;55.70;38.45;;;;;;;7.43;100.00;100334.09;4905157;29;20039;-73
2023/12/29 07:37:42;;;;;;;58.30;41.17;;;;;;;7.50;100.00;100337.16;4906932;29;20036;-74
2023/12/29 07:40:10;;;;;;;60.92;41.70;;;;;;;7.51;100.00;100344.94;4904281;29;20061;-73
2023/12/29 07:42:35;;;;;;;62.60;40.15;;;;;;;7.57;100.00;100344.50;4904637;29;20128;-74
2023/12/29 07:45:01;;;;;;;62.47;42.33;;;;;;;7.60;100.00;100341.66;4905428;29;20118;-73
2023/12/29 07:47:26;;;;;;;58.17;40.17;;;;;;;7.63;100.00;100344.09;4903841;29;20048;-74
2023/12/29 07:49:52;;;;;;;56.95;39.83;;;;;;;7.67;100.00;100353.44;4904420;29;20036;-74
2023/12/29 07:52:17;;;;;;;59.28;40.63;;;;;;;7.60;100.00;100346.91;4905503;29;20127;-74
2023/12/29 07:54:43;;;;;;;52.20;38.88;;;;;;;7.59;100.00;100361.03;4906376;29;20036;-79
2023/12/29 07:57:08;;;;;;;57.03;39.42;;;;;;;7.61;100.00;100359.09;4904143;29;20040;-71
2023/12/29 07:59:34;;;;;;;56.97;39.47;;;;;;;7.59;100.00;100354.94;4908648;29;20032;-73
2023/12/29 08:01:59;;;;;;;60.50;39.70;;;;;;;7.52;100.00;100359.75;4901979;29;20120;-73
2023/12/29 08:04:25;;;;;;;59.95;39.10;;;;;;;7.49;100.00;100359.94;4905169;29;20044;-74
2023/12/29 08:06:50;;;;;;;58.55;40.30;;;;;;;7.52;100.00;100359.75;4906189;29;20033;-75
2023/12/29 08:09:16;;;;;;;60.28;40.63;;;;;;;7.44;100.00;100372.53;4904858;29;20072;-74
2023/12/29 08:11:42;;;;;;;62.22;39.90;;;;;;;7.46;100.00;100378.53;4901429;29;20039;-77
2023/12/29 08:14:08;;;;;;;50.15;38.83;;;;;;;7.59;100.00;100371.53;4904861;29;20044;-76
2023/12/29 08:16:39;;;;;;;55.60;39.95;;;;;;;7.68;100.00;100368.25;4907866;29;20044;-74
2023/12/29 08:19:04;;;;;;;;;;;;;;;7.72;100.00;100367.09;4899118;29;20099;-75
2023/12/29 08:21:29;;;;;;;55.28;39.35;;;;;;;7.74;100.00;100369.63;4903934;29;19918;-74
2023/12/29 08:23:55;;;;;;;58.47;39.15;;;;;;;7.68;100.00;100368.25;4901357;29;20044;-74
2023/12/29 08:26:20;;;;;;;56.40;39.67;;;;;;;7.74;100.00;100369.63;4905261;29;20032;-75
2023/12/29 08:28:46;;;;;;;53.28;39.35;;;;;;;7.72;100.00;100371.50;4905713;29;20794;-76
2023/12/29 08:31:11;;;;;;;58.33;39.35;;;;;;;7.70;100.00;100374.25;4904534;29;20060;-74
2023/12/29 08:33:37;;;;;;;58.00;38.33;;;;;;;7.80;100.00;100380.56;4907865;29;20123;-75
2023/12/29 08:36:03;;;;;;;54.92;39.83;;;;;;;7.88;100.00;100376.56;4906626;29;20063;-75
2023/12/29 08:38:30;;;;;;;56.15;38.40;;;;;;;7.89;100.00;100379.09;4904402;29;20091;-75
2023/12/29 08:40:56;;;;;;;52.10;37.08;;;;;;;7.91;100.00;100376.34;4902685;29;20066;-75
2023/12/29 08:43:21;;;;;;;52.08;37.45;;;;;;;7.95;100.00;100377.84;4906300;29;20072;-75
2023/12/29 08:45:49;;;;;;;51.38;38.40;;;;;;;7.83;100.00;100380.34;4904512;29;20099;-76
2023/12/29 08:48:15;;;;;;;56.72;38.47;;;;;;;7.92;100.00;100378.03;4907335;29;20096;-75
2023/12/29 08:50:42;;;;;;;54.90;39.78;;;;;;;7.94;100.00;100386.66;4970231;23;20410;-73
2023/12/29 08:53:08;;;;;;;53.10;37.90;;;;;;;7.88;100.00;100381.81;4909274;29;20073;-73
2023/12/29 08:55:34;;;;;;;53.90;38.40;;;;;;;7.85;100.00;100395.16;4906717;29;20035;-75
2023/12/29 08:57:59;;;;;;;50.45;38.28;;;;;;;7.87;100.00;100390.66;4911794;29;20032;-75
2023/12/29 09:00:25;;;;;;;57.20;38.97;;;;;;;7.68;100.00;100391.91;4909461;29;20044;-76
2023/12/29 09:02:50;;;;;;;55.20;39.05;;;;;;;7.62;100.00;100397.56;4912762;29;20036;-75
2023/12/29 09:05:16;;;;;;;57.50;38.97;;;;;;;7.72;100.00;100397.78;4907730;29;20044;-75
2023/12/29 09:07:41;;;;;;;56.42;39.78;;;;;;;7.79;100.00;100399.91;4909320;29;20024;-75
2023/12/29 09:10:08;;;;;;;62.20;40.08;;;;;;;7.69;100.00;100398.84;4909355;29;20508;-76
2023/12/29 09:12:37;;;;;;;60.33;39.13;;;;;;;7.60;100.00;100409.97;4910749;29;20040;-76
2023/12/29 09:15:03;;;;;;;54.35;40.47;;;;;;;7.65;100.00;100402.63;4908760;29;20452;-75
2023/12/29 09:17:29;;;;;;;57.58;40.25;;;;;;;7.73;100.00;100408.19;4906552;29;20032;-75
2023/12/29 09:19:54;;;;;;;60.25;41.45;;;;;;;7.81;100.00;100403.25;4909165;29;20040;-75
2023/12/29 09:22:20;;;;;;;61.72;41.03;;;;;;;7.79;100.00;100409.56;4910690;29;20039;-75
2023/12/29 09:24:45;;;;;;;59.80;39.78;;;;;;;7.77;100.00;100414.09;4907199;29;20032;-75
2023/12/29 09:27:11;;;;;;;56.45;40.13;;;;;;;7.77;100.00;100408.84;4908889;29;20071;-75
2023/12/29 09:29:36;;;;;;;59.15;40.63;;;;;;;7.79;100.00;100405.16;4909068;29;20065;-76
2023/12/29 09:32:02;;;;;;;52.95;38.92;;;;;;;7.80;100.00;100401.56;4908550;29;20079;-76
2023/12/29 09:34:27;;;;;;;57.58;39.95;;;;;;;7.81;100.00;100408.53;4905878;29;20417;-75
2023/12/29 09:36:53;;;;;;;56.45;38.30;;;;;;;7.78;100.00;100421.84;4909570;29;20370;-75
2023/12/29 09:39:18;;;;;;;54.88;37.95;;;;;;;7.73;100.00;100418.69;4905998;29;20041;-75
2023/12/29 09:41:48;;;;;;;56.05;38.67;;;;;;;7.69;100.00;100414.59;4908576;29;20112;-75
2023/12/29 09:44:15;;;;;;;52.70;39.72;;;;;;;7.70;100.00;100416.28;4909280;29;20602;-78
2023/12/29 09:46:41;;;;;;;60.65;39.88;;;;;;;7.74;100.00;100422.16;4909168;29;20583;-77
2023/12/29 09:49:08;;;;;;;55.28;38.03;;;;;;;7.75;100.00;100416.81;4909176;29;20032;-76
2023/12/29 09:51:36;;;;;;;48.53;35.97;;;;;;;7.77;100.00;100422.81;4913168;29;20405;-75
2023/12/29 09:54:02;;;;;;;48.20;36.20;;;;;;;7.86;100.00;100423.97;4905412;29;20052;-76
2023/12/29 09:56:28;;;;;;;55.10;38.63;;;;;;;7.92;100.00;100425.34;4905222;29;20036;-75
2023/12/29 09:58:54;;;;;;;51.58;37.20;;;;;;;8.01;100.00;100424.72;4910302;29;20087;-77
2023/12/29 10:01:24;;;;;;;54.35;37.03;;;;;;;8.10;100.00;100418.81;4315101;29;10000731;-76
2023/12/29 10:03:49;;;;;;;56.30;37.00;;;;;;;8.16;100.00;100413.97;4219648;29;10000711;-75
2023/12/29 10:06:21;;;;;;;54.17;33.42;;;;;;;8.13;100.00;100413.31;4902670;29;20063;-75
2023/12/29 10:08:49;;;;;;;49.78;33.75;;;;;;;8.14;100.00;100417.66;4910593;29;20044;-75
2023/12/29 10:11:18;;;;;;;45.75;32.90;;;;;;;8.22;100.00;100415.34;4907145;29;20458;-76
2023/12/29 10:13:46;;;;;;;44.83;33.00;;;;;;;8.38;100.00;100413.34;4909469;29;20036;-76
2023/12/29 10:16:51;;;;;;;43.47;30.30;;;;;;;8.16;100.00;100411.34;4910478;29;20036;-76
2023/12/29 10:19:19;;;;;;;45.42;33.30;;;;;;;8.36;100.00;100415.25;4883095;29;20195;-76
2023/12/29 10:22:03;;;;;;;45.90;34.35;;;;;;;8.31;100.00;100404.19;4889813;29;20574;-77
2023/12/29 10:24:29;;;;;;;43.30;32.00;;;;;;;8.39;100.00;100401.88;4887092;29;20432;-75
2023/12/29 10:26:55;;;;;;;47.42;32.17;;;;;;;8.47;100.00;100391.66;4881335;29;20059;-75
2023/12/29 10:29:21;;;;;;;42.47;31.08;;;;;;;8.49;100.00;100389.75;4883215;29;20085;-73
2023/12/29 10:31:46;;;;;;;46.55;32.15;;;;;;;8.54;100.00;100397.34;4882075;29;20044;-73
2023/12/29 10:34:28;;;;;;;40.58;29.83;;;;;;;8.46;100.00;100389.97;4886972;29;20529;-73
2023/12/29 10:36:54;;;;;;;42.75;29.20;;;;;;;8.50;100.00;100390.59;4884057;29;20128;-74
2023/12/29 10:39:20;;;;;;;39.05;29.40;;;;;;;8.43;100.00;100390.19;4884337;29;20413;-74
2023/12/29 10:41:46;;;;;;;40.35;30.23;;;;;;;8.44;100.00;100401.53;4885521;29;20041;-75
2023/12/29 10:44:12;;;;;;;42.35;29.00;;;;;;;8.18;100.00;100395.47;4886518;29;20121;-75
2023/12/29 10:46:37;;;;;;;43.75;30.00;;;;;;;8.16;100.00;100394.72;4884615;29;20052;-76
2023/12/29 10:49:09;;;;;;;41.08;29.50;;;;;;;8.33;100.00;100383.91;4887555;29;20215;-75
2023/12/29 10:51:36;;;;;;;41.40;29.23;;;;;;;8.25;100.00;100386.19;4872301;29;20072;-74
2023/12/29 10:54:03;;;;;;;43.63;30.08;;;;;;;8.26;100.00;100382.63;4901400;29;20052;-74
2023/12/29 10:56:29;;;;;;;42.65;30.08;;;;;;;8.32;100.00;100376.97;4908636;29;20029;-74
2023/12/29 10:59:05;;;;;;;39.25;30.23;;;;;;;8.40;100.00;100374.63;4909099;29;20115;-72
2023/12/29 11:01:33;;;;;;;39.13;27.30;;;;;;;8.31;100.00;100372.63;4905176;29;20060;-74
2023/12/29 11:04:04;;;;;;;42.92;29.50;;;;;;;8.32;100.00;100371.69;4908576;29;20039;-74
2023/12/29 11:06:40;;;;;;;38.95;29.23;;;;;;;8.48;100.00;100356.50;4907737;29;20063;-75